Time;durP1;ratioP1;P1;durP2;ratioP2;P2;SDS_P1;SDS_P2;PMS_P1;PMS_P2;Temp;Humidity;BMP_temperature;BMP_pressure;BME280_temperature;BME280_humidity;BME280_pressure;Samples;Min_cycle;Max_cycle;Signal;HPM_P1;HPM_P2
2021/01/08 00:00:50;;;;;;;31.73;14.82;;;;;;;0.17;98.61;95993.44;5033898;28;20045;-47
2021/01/08 00:03:18;;;;;;;34.22;16.58;;;;;;;0.13;98.91;95993.69;5040359;28;20099;-47
2021/01/08 00:05:44;;;;;;;32.15;16.60;;;;;;;0.08;99.59;95987.97;5033702;28;20046;-46
2021/01/08 00:08:12;;;;;;;37.03;18.15;;;;;;;0.11;100.00;95993.78;5029723;28;20042;-46
2021/01/08 00:10:39;;;;;;;38.72;17.35;;;;;;;0.07;99.88;95989.72;5035504;28;20064;-44
2021/01/08 00:13:07;;;;;;;31.58;15.38;;;;;;;0.02;99.80;95994.34;5046470;28;20029;-48
2021/01/08 00:15:33;;;;;;;30.60;15.30;;;;;;;0.01;99.85;95995.28;5038508;28;20498;-48
2021/01/08 00:18:00;;;;;;;33.33;16.38;;;;;;;0.04;100.00;95989.06;5048006;28;20120;-44
2021/01/08 00:20:27;;;;;;;33.75;16.20;;;;;;;0.07;99.93;95987.13;4994879;28;20053;-47
2021/01/08 00:22:54;;;;;;;33.17;16.45;;;;;;;0.08;99.79;95988.78;5032328;28;20099;-45
2021/01/08 00:25:21;;;;;;;34.53;17.13;;;;;;;0.06;99.70;95985.44;5045287;28;20045;-44
2021/01/08 00:27:48;;;;;;;29.75;16.52;;;;;;;0.09;99.62;95982.66;5039546;28;20095;-46
2021/01/08 00:30:17;;;;;;;31.35;16.30;;;;;;;0.07;99.60;95984.53;5038212;28;20393;-46
2021/01/08 00:32:45;;;;;;;32.22;17.60;;;;;;;0.17;97.88;95980.47;5035932;28;20056;-47
2021/01/08 00:35:12;;;;;;;34.67;17.38;;;;;;;0.15;97.79;95982.31;5038474;28;20432;-47
2021/01/08 00:37:40;;;;;;;34.55;17.90;;;;;;;0.16;97.47;95978.78;5043077;28;20071;-44
2021/01/08 00:40:08;;;;;;;32.00;16.70;;;;;;;0.27;96.71;95980.72;5048964;28;20510;-45
2021/01/08 00:42:36;;;;;;;35.05;17.13;;;;;;;0.22;96.48;95972.41;5043161;28;20052;-45
2021/01/08 00:45:07;;;;;;;34.08;16.92;;;;;;;0.25;95.60;95974.81;5022172;28;21368;-45
2021/01/08 00:47:35;;;;;;;31.63;15.23;;;;;;;0.30;95.42;95980.53;5032613;28;20047;-47
2021/01/08 00:50:02;;;;;;;33.10;16.17;;;;;;;0.32;95.33;95973.50;5041733;28;20041;-45
2021/01/08 00:52:29;;;;;;;33.58;16.98;;;;;;;0.36;95.19;95974.16;5038245;28;20053;-46
2021/01/08 00:54:56;;;;;;;33.53;17.58;;;;;;;0.37;94.74;95974.03;5028712;28;20042;-43
2021/01/08 00:57:38;;;;;;;32.58;17.35;;;;;;;0.39;94.76;95973.97;5026268;28;20072;-45
2021/01/08 01:00:06;;;;;;;28.38;14.60;;;;;;;0.47;93.80;95977.72;5035481;28;20110;-44
2021/01/08 01:02:34;;;;;;;34.20;16.55;;;;;;;0.51;93.44;95985.34;5028836;28;20132;-46
2021/01/08 01:05:01;;;;;;;29.95;15.13;;;;;;;0.43;93.61;95980.63;5028108;28;20060;-45
2021/01/08 01:07:28;;;;;;;26.52;13.52;;;;;;;0.50;93.35;95981.09;5025125;28;20715;-46
2021/01/08 01:09:56;;;;;;;30.42;14.93;;;;;;;0.50;92.84;95979.31;5031360;28;20523;-45
2021/01/08 01:12:22;;;;;;;31.25;16.88;;;;;;;0.42;94.41;95986.75;5043620;28;20048;-45
2021/01/08 01:14:49;;;;;;;26.80;14.63;;;;;;;0.22;95.55;95987.97;5018321;28;20071;-45
2021/01/08 01:17:16;;;;;;;34.60;17.15;;;;;;;0.27;95.61;95988.50;5029814;28;20127;-45
2021/01/08 01:19:44;;;;;;;33.47;17.90;;;;;;;0.28;96.26;95989.34;5022036;28;20412;-47
2021/01/08 01:22:12;;;;;;;31.13;16.30;;;;;;;0.32;95.56;95996.03;5032839;28;20049;-48
2021/01/08 01:24:40;;;;;;;34.20;17.65;;;;;;;0.30;95.76;95992.66;5014766;28;20049;-45
2021/01/08 01:27:07;;;;;;;31.13;16.65;;;;;;;0.21;95.68;95997.50;5033922;28;20973;-44
2021/01/08 01:29:34;;;;;;;33.92;17.77;;;;;;;0.31;95.50;95999.53;5008304;28;20045;-47
2021/01/08 01:32:01;;;;;;;36.67;18.13;;;;;;;0.23;96.06;95998.22;5037883;28;20073;-46
2021/01/08 01:34:28;;;;;;;36.92;19.33;;;;;;;0.26;96.02;95998.97;5038831;28;20075;-43
2021/01/08 01:36:56;;;;;;;29.45;16.33;;;;;;;0.26;95.59;95999.81;5036208;28;20465;-49
2021/01/08 01:39:23;;;;;;;33.40;16.90;;;;;;;0.29;95.59;95991.84;5048462;28;20107;-50
2021/01/08 01:41:50;;;;;;;31.35;16.83;;;;;;;0.26;95.25;95989.44;5045104;28;20150;-47
2021/01/08 01:44:16;;;;;;;30.65;16.23;;;;;;;0.28;95.23;95991.94;5020874;28;20049;-47
2021/01/08 01:46:44;;;;;;;33.00;18.40;;;;;;;0.19;95.09;95991.56;5020401;28;20042;-48
2021/01/08 01:49:11;;;;;;;31.52;16.52;;;;;;;0.19;95.13;95990.75;5001978;28;20044;-45
2021/01/08 01:51:38;;;;;;;35.22;17.02;;;;;;;0.17;96.07;95997.75;5042375;28;20458;-47
2021/01/08 01:54:07;;;;;;;28.95;14.25;;;;;;;0.13;96.59;96007.47;5042261;28;20037;-44
2021/01/08 01:56:34;;;;;;;29.90;15.48;;;;;;;0.15;96.32;96005.66;5011453;28;20049;-48
2021/01/08 01:59:01;;;;;;;31.85;15.75;;;;;;;0.20;95.87;96003.59;5028052;28;20455;-47
2021/01/08 02:01:28;;;;;;;33.97;15.35;;;;;;;0.13;95.64;95998.88;5024932;28;20115;-48
2021/01/08 02:03:57;;;;;;;31.42;14.82;;;;;;;0.25;96.01;95999.91;5039109;28;20045;-44
2021/01/08 02:06:31;;;;;;;30.48;14.68;;;;;;;0.19;95.70;96003.69;5032197;28;20110;-45
2021/01/08 02:08:59;;;;;;;30.80;16.95;;;;;;;0.17;96.11;96003.81;5034158;28;20474;-48
2021/01/08 02:11:29;;;;;;;34.65;16.40;;;;;;;0.17;95.71;96005.53;5024007;28;20124;-45
2021/01/08 02:14:00;;;;;;;29.80;15.05;;;;;;;0.18;95.65;96002.88;5026734;28;20053;-44
2021/01/08 02:16:29;;;;;;;29.35;14.38;;;;;;;0.15;96.02;96010.00;5026370;28;20454;-48
2021/01/08 02:18:57;;;;;;;33.28;17.00;;;;;;;0.09;96.43;96008.59;5019348;28;20045;-47
2021/01/08 02:21:26;;;;;;;31.40;15.23;;;;;;;0.14;96.39;96008.34;5043021;28;20037;-46
2021/01/08 02:24:00;;;;;;;35.47;16.65;;;;;;;0.12;97.05;96013.59;5042899;28;20124;-45
2021/01/08 02:26:28;;;;;;;31.95;16.90;;;;;;;0.06;97.57;96006.19;5032442;28;20584;-46
2021/01/08 02:28:55;;;;;;;27.70;14.20;;;;;;;0.07;97.11;96002.69;5034338;28;20419;-47
2021/01/08 02:31:23;;;;;;;31.25;16.23;;;;;;;0.06;97.29;96001.00;5039515;28;20544;-45
2021/01/08 02:33:50;;;;;;;29.63;14.70;;;;;;;0.09;96.95;96003.41;5046032;28;20049;-44
2021/01/08 02:36:17;;;;;;;24.15;10.95;;;;;;;0.05;97.14;96004.53;5050506;28;20267;-45
2021/01/08 02:38:45;;;;;;;36.72;17.35;;;;;;;0.06;96.87;96003.59;5044017;28;20053;-48
2021/01/08 02:41:12;;;;;;;35.47;18.73;;;;;;;0.07;97.06;95997.50;5040562;28;20049;-43
2021/01/08 02:43:41;;;;;;;37.03;18.65;;;;;;;0.02;96.95;96002.13;5039909;28;20085;-44
2021/01/08 02:46:08;;;;;;;36.42;18.65;;;;;;;0.07;97.06;95997.50;5029225;28;20055;-45
2021/01/08 02:48:36;;;;;;;32.58;17.27;;;;;;;0.01;96.75;96004.81;5024533;28;20444;-45
2021/01/08 02:51:03;;;;;;;38.05;21.92;;;;;;;0.08;97.05;96000.94;5044284;28;20408;-46
2021/01/08 02:53:32;;;;;;;36.20;19.17;;;;;;;-0.05;97.53;95999.06;5018439;28;20045;-47
2021/01/08 02:56:03;;;;;;;37.20;18.45;;;;;;;0.03;96.31;96002.94;5032569;28;20067;-44
2021/01/08 02:58:32;;;;;;;33.85;17.88;;;;;;;-0.03;97.37;96002.41;5034117;28;20408;-44
2021/01/08 03:01:00;;;;;;;39.80;19.55;;;;;;;0.02;96.37;96001.28;5053236;28;20121;-48
2021/01/08 03:03:28;;;;;;;37.93;22.97;;;;;;;0.05;96.66;95996.75;5029556;28;20446;-45
2021/01/08 03:05:55;;;;;;;35.33;20.92;;;;;;;-0.04;96.90;96000.72;5012308;28;20534;-45
2021/01/08 03:08:23;;;;;;;36.08;21.80;;;;;;;-0.06;97.51;95997.41;5029270;28;20823;-47
2021/01/08 03:10:50;;;;;;;37.03;22.33;;;;;;;-0.01;97.27;96000.53;5050012;28;20421;-43
2021/01/08 03:13:18;;;;;;;36.75;21.90;;;;;;;0.08;96.89;95999.16;5040616;28;20411;-46
2021/01/08 03:15:45;;;;;;;35.65;21.85;;;;;;;0.12;96.67;95995.44;5046517;28;20417;-48
2021/01/08 03:18:13;;;;;;;34.30;21.40;;;;;;;0.10;96.05;95997.28;5031318;28;20498;-47
2021/01/08 03:20:40;;;;;;;34.20;20.92;;;;;;;0.28;94.54;95995.38;5041770;28;20421;-46
2021/01/08 03:23:08;;;;;;;34.75;21.05;;;;;;;0.27;93.76;96000.63;5023208;28;20482;-45
2021/01/08 03:25:35;;;;;;;33.72;20.45;;;;;;;0.33;93.74;96000.28;5016266;28;20499;-43
2021/01/08 03:28:02;;;;;;;33.55;20.90;;;;;;;0.17;94.42;96000.34;5036510;28;20928;-45
2021/01/08 03:30:29;;;;;;;33.20;20.90;;;;;;;0.20;94.65;96001.00;5046234;28;20414;-47
2021/01/08 03:32:56;;;;;;;33.80;20.15;;;;;;;0.12;95.96;95994.63;5033807;28;20490;-50
2021/01/08 03:35:24;;;;;;;34.08;19.90;;;;;;;0.13;94.97;95999.69;5023764;28;20425;-48
2021/01/08 03:37:52;;;;;;;33.90;20.45;;;;;;;0.16;94.69;96004.72;5034829;28;20422;-44
2021/01/08 03:40:19;;;;;;;31.88;19.38;;;;;;;0.15;94.37;96003.06;5023237;28;20410;-45
2021/01/08 03:42:46;;;;;;;32.78;19.83;;;;;;;0.16;94.74;96003.88;5004731;28;20886;-48
2021/01/08 03:45:13;;;;;;;33.88;20.23;;;;;;;0.25;94.79;96005.94;5013207;28;20961;-46
2021/01/08 03:47:40;;;;;;;34.60;21.48;;;;;;;0.23;94.47;96000.81;5045742;28;20413;-47
2021/01/08 03:50:08;;;;;;;32.72;20.27;;;;;;;0.27;94.63;95998.03;5035021;28;20415;-51
2021/01/08 03:52:36;;;;;;;33.35;21.02;;;;;;;0.07;95.37;95997.50;5045744;28;20417;-48
2021/01/08 03:55:04;;;;;;;34.67;21.60;;;;;;;0.15;95.03;95997.03;5039372;28;20428;-45
2021/01/08 03:57:30;;;;;;;34.17;20.80;;;;;;;0.18;95.11;95996.84;5046011;28;20838;-47
2021/01/08 03:59:57;;;;;;;35.33;21.48;;;;;;;0.11;94.96;95988.63;5039350;28;20576;-45
2021/01/08 04:02:25;;;;;;;34.28;21.25;;;;;;;0.02;95.17;95981.38;5042981;28;20452;-45
2021/01/08 04:04:52;;;;;;;34.42;21.83;;;;;;;0.07;95.27;95986.28;5032331;28;20430;-45
2021/01/08 04:07:20;;;;;;;35.05;21.35;;;;;;;-0.03;95.85;95986.84;5042583;28;21231;-44
2021/01/08 04:09:48;;;;;;;35.50;21.70;;;;;;;0.13;95.04;95984.16;5036627;28;20848;-48
2021/01/08 04:12:15;;;;;;;34.33;21.25;;;;;;;0.11;94.81;95986.03;5035777;28;20551;-45
2021/01/08 04:14:42;;;;;;;36.40;21.95;;;;;;;0.12;95.02;95986.84;5026764;28;20424;-44
2021/01/08 04:17:09;;;;;;;34.17;20.73;;;;;;;0.01;95.81;95991.84;5029732;28;20430;-48
2021/01/08 04:19:36;;;;;;;36.88;21.40;;;;;;;0.05;96.32;95986.38;5031402;28;20427;-46
2021/01/08 04:22:03;;;;;;;34.47;21.30;;;;;;;0.04;95.82;95987.31;5032689;28;20481;-47
2021/01/08 04:24:30;;;;;;;34.13;21.23;;;;;;;0.11;95.44;95982.59;5023007;28;20783;-45
2021/01/08 04:26:57;;;;;;;35.03;21.67;;;;;;;0.17;95.15;95988.25;4999145;28;20409;-45
2021/01/08 04:29:24;;;;;;;37.50;22.48;;;;;;;0.20;95.12;95984.63;5022231;28;20420;-46
2021/01/08 04:31:51;;;;;;;36.73;22.80;;;;;;;0.01;98.00;95994.44;5025455;28;20413;-46
2021/01/08 04:34:19;;;;;;;40.37;23.80;;;;;;;-0.15;100.00;95990.16;5026902;28;20421;-46
2021/01/08 04:36:46;;;;;;;38.53;23.50;;;;;;;-0.17;100.00;96002.38;5040469;28;20830;-44
2021/01/08 04:39:13;;;;;;;37.42;22.50;;;;;;;-0.10;100.00;96003.69;5043533;28;20422;-44
2021/01/08 04:41:40;;;;;;;37.95;22.48;;;;;;;-0.07;99.48;96006.09;5026841;28;20927;-46
2021/01/08 04:44:09;;;;;;;37.00;22.27;;;;;;;0.01;99.24;95999.63;5037310;28;20917;-44
2021/01/08 04:46:36;;;;;;;38.45;22.40;;;;;;;-0.01;99.27;96005.72;5014250;28;20431;-45
2021/01/08 04:49:06;;;;;;;37.40;22.87;;;;;;;-0.14;100.00;96003.94;5015736;28;20506;-43
2021/01/08 04:51:34;;;;;;;36.22;23.02;;;;;;;-0.02;99.15;95996.28;5035935;28;20506;-49
2021/01/08 04:54:02;;;;;;;36.83;21.75;;;;;;;-0.13;99.02;96006.47;5029326;28;20897;-45
2021/01/08 04:56:31;;;;;;;38.13;23.27;;;;;;;-0.10;99.45;96000.28;5032959;28;20413;-48
2021/01/08 04:58:59;;;;;;;37.47;22.27;;;;;;;-0.03;99.58;96001.56;5044384;28;20512;-47
2021/01/08 05:01:27;;;;;;;39.50;23.40;;;;;;;-0.15;99.29;96005.69;5031322;28;20459;-47
2021/01/08 05:03:54;;;;;;;37.42;22.00;;;;;;;-0.12;98.43;96002.09;5038584;28;20417;-46
2021/01/08 05:06:22;;;;;;;36.55;22.38;;;;;;;-0.13;98.41;95997.84;5042034;28;20476;-50
2021/01/08 05:08:49;;;;;;;37.13;21.92;;;;;;;-0.14;99.06;96001.34;5040887;28;20854;-44
2021/01/08 05:11:23;;;;;;;38.50;22.63;;;;;;;-0.12;99.20;96005.53;5041335;28;20429;-49
2021/01/08 05:13:53;;;;;;;35.85;21.42;;;;;;;-0.16;98.39;95992.84;5016236;28;20490;-47
2021/01/08 05:16:22;;;;;;;39.00;22.65;;;;;;;-0.21;99.14;96000.03;5033646;28;21135;-46
2021/01/08 05:18:51;;;;;;;39.13;22.58;;;;;;;-0.07;98.71;96002.66;5014770;28;20411;-44
2021/01/08 05:21:19;;;;;;;38.20;22.43;;;;;;;-0.13;98.70;96005.63;5031039;28;20423;-46
2021/01/08 05:23:48;;;;;;;37.60;22.30;;;;;;;-0.14;98.76;96002.19;5000464;28;20401;-44
2021/01/08 05:26:15;;;;;;;38.88;22.45;;;;;;;-0.07;98.60;95998.31;5044351;28;20409;-46
2021/01/08 05:28:49;;;;;;;37.38;22.15;;;;;;;-0.20;98.42;95999.16;5026430;28;20471;-44
2021/01/08 05:31:17;;;;;;;40.35;23.10;;;;;;;-0.13;99.61;96000.44;5038138;28;20682;-44
2021/01/08 05:33:45;;;;;;;39.22;23.23;;;;;;;-0.26;98.95;96003.75;5029869;28;20462;-44
2021/01/08 05:36:13;;;;;;;39.63;22.90;;;;;;;-0.30;99.63;96002.25;5045303;28;20795;-44
2021/01/08 05:38:41;;;;;;;37.17;22.38;;;;;;;-0.23;98.96;96005.34;5017525;28;20417;-46
2021/01/08 05:41:10;;;;;;;38.75;23.08;;;;;;;-0.28;99.24;95999.56;5022744;28;20467;-45
2021/01/08 05:43:39;;;;;;;38.72;23.35;;;;;;;-0.16;98.23;96004.03;5026453;28;20419;-44
2021/01/08 05:46:08;;;;;;;38.10;22.23;;;;;;;-0.19;98.10;96006.81;5007725;28;20397;-46
2021/01/08 05:48:37;;;;;;;37.78;22.73;;;;;;;-0.10;98.45;96005.44;5027455;28;20803;-44
2021/01/08 05:51:05;;;;;;;40.37;22.03;;;;;;;-0.15;98.36;96008.28;5023660;28;20415;-46
2021/01/08 05:53:33;;;;;;;40.43;22.67;;;;;;;-0.17;97.97;96009.31;5023228;28;20414;-48
2021/01/08 05:56:00;;;;;;;39.58;23.40;;;;;;;-0.22;99.10;96012.16;5041927;28;20938;-49
2021/01/08 05:58:28;;;;;;;38.72;23.13;;;;;;;-0.18;98.60;96005.88;5029462;28;20430;-44
2021/01/08 06:00:56;;;;;;;37.75;22.48;;;;;;;-0.17;97.59;96014.47;5019846;28;20417;-47
2021/01/08 06:03:24;;;;;;;37.83;22.00;;;;;;;-0.16;98.07;96019.59;5019521;28;20419;-47
2021/01/08 06:05:53;;;;;;;38.50;22.77;;;;;;;-0.17;97.44;96017.06;5019313;28;20417;-46
2021/01/08 06:08:22;;;;;;;36.92;22.40;;;;;;;-0.07;97.33;96018.19;5035565;28;20404;-44
2021/01/08 06:10:53;;;;;;;38.80;22.77;;;;;;;-0.17;97.02;96020.53;5030731;28;20557;-43
2021/01/08 06:13:22;;;;;;;38.07;22.83;;;;;;;-0.26;98.13;96016.69;5025816;28;20428;-43
2021/01/08 06:15:52;;;;;;;38.58;22.60;;;;;;;-0.29;98.33;96010.88;5021082;28;20419;-44
2021/01/08 06:18:21;;;;;;;40.72;23.13;;;;;;;-0.32;98.08;96014.47;4991621;28;20762;-45
2021/01/08 06:20:50;;;;;;;39.08;22.83;;;;;;;-0.29;98.00;96022.06;5016179;28;20416;-44
2021/01/08 06:23:34;;;;;;;38.80;22.70;;;;;;;-0.38;98.89;96027.78;5010401;28;20397;-44
2021/01/08 06:26:10;;;;;;;39.22;22.65;;;;;;;-0.34;97.98;96021.50;5003084;28;20481;-46
2021/01/08 06:28:39;;;;;;;37.83;22.25;;;;;;;-0.36;98.32;96025.94;5028604;28;20961;-44
2021/01/08 06:31:10;;;;;;;37.67;22.08;;;;;;;-0.41;98.31;96019.34;5036159;28;20420;-45
2021/01/08 06:33:38;;;;;;;38.40;21.92;;;;;;;-0.41;98.50;96027.97;5055847;28;20404;-47
2021/01/08 06:36:19;;;;;;;37.45;22.48;;;;;;;-0.38;99.05;96029.53;5030484;28;20778;-46
2021/01/08 06:38:48;;;;;;;36.70;21.60;;;;;;;-0.30;98.81;96029.94;5007165;28;20417;-44
2021/01/08 06:41:17;;;;;;;38.85;21.63;;;;;;;-0.32;98.52;96026.59;5034043;28;20916;-45
2021/01/08 06:43:48;;;;;;;39.08;22.20;;;;;;;-0.34;98.72;96031.03;5036116;28;20817;-48
2021/01/08 06:46:27;;;;;;;37.55;21.60;;;;;;;-0.28;97.88;96028.06;5030362;28;20407;-44
2021/01/08 06:48:55;;;;;;;37.22;21.67;;;;;;;-0.25;98.58;96035.66;5015213;28;20437;-50
2021/01/08 06:51:27;;;;;;;39.58;22.08;;;;;;;-0.26;98.30;96034.84;5045921;28;20420;-46
2021/01/08 06:54:02;;;;;;;38.33;21.75;;;;;;;-0.22;97.56;96032.06;5019228;28;20414;-47
2021/01/08 06:56:32;;;;;;;35.58;20.33;;;;;;;-0.31;98.28;96033.41;5023005;28;20415;-45
2021/01/08 06:59:00;;;;;;;34.20;19.60;;;;;;;-0.25;98.06;96028.72;5007292;28;20422;-44
2021/01/08 07:01:54;;;;;;;40.38;22.05;;;;;;;-0.17;97.52;96030.88;5014076;28;20941;-46
2021/01/08 07:04:24;;;;;;;39.22;21.02;;;;;;;-0.24;97.68;96032.16;5005687;28;20409;-44
2021/01/08 07:06:51;;;;;;;38.85;22.20;;;;;;;-0.08;96.83;96042.47;5033477;28;20417;-45
2021/01/08 07:09:18;;;;;;;34.70;20.88;;;;;;;-0.05;96.63;96043.13;5010668;28;20413;-47
2021/01/08 07:11:53;;;;;;;36.78;21.65;;;;;;;-0.05;96.77;96045.69;5020780;28;20427;-48
2021/01/08 07:14:22;;;;;;;38.40;21.55;;;;;;;0.04;96.29;96044.34;5019778;28;20456;-45
2021/01/08 07:16:51;;;;;;;37.70;21.73;;;;;;;0.06;96.48;96052.00;5037338;28;20785;-50
2021/01/08 07:19:20;;;;;;;37.38;21.58;;;;;;;-0.05;96.80;96055.25;5003299;28;20828;-45
2021/01/08 07:21:48;;;;;;;37.53;21.20;;;;;;;0.04;95.93;96059.91;5018855;28;20950;-45
2021/01/08 07:24:17;;;;;;;37.65;22.38;;;;;;;0.21;95.41;96061.50;5007780;28;20423;-43
2021/01/08 07:26:46;;;;;;;35.47;20.73;;;;;;;0.21;94.98;96067.50;5040467;28;20926;-48
2021/01/08 07:29:15;;;;;;;36.20;21.73;;;;;;;0.20;94.55;96065.81;5009260;28;20558;-44
2021/01/08 07:31:43;;;;;;;36.53;21.45;;;;;;;0.30;94.01;96060.91;5025501;28;20421;-45
2021/01/08 07:34:11;;;;;;;35.88;22.27;;;;;;;0.26;94.23;96059.44;5018824;28;20420;-46
2021/01/08 07:36:38;;;;;;;36.67;21.50;;;;;;;0.40;93.38;96066.41;5057411;28;20957;-45
2021/01/08 07:39:09;;;;;;;37.33;21.93;;;;;;;0.49;92.36;96065.03;5019764;28;20473;-46
2021/01/08 07:41:39;;;;;;;37.30;21.60;;;;;;;0.42;92.12;96073.16;5035789;28;20457;-46
2021/01/08 07:44:33;;;;;;;35.63;20.88;;;;;;;0.47;92.18;96075.47;5040503;28;20422;-45
2021/01/08 07:47:23;;;;;;;34.88;20.92;;;;;;;0.57;92.08;96079.19;5046651;28;20937;-47
2021/01/08 07:50:11;;;;;;;36.17;20.95;;;;;;;0.50;91.19;96080.47;5036826;28;20918;-45
2021/01/08 07:52:39;;;;;;;36.10;21.65;;;;;;;0.60;90.89;96085.97;5034373;28;20440;-45
2021/01/08 07:55:07;;;;;;;35.20;21.65;;;;;;;0.57;91.22;96084.38;5002504;28;20399;-48
2021/01/08 07:58:03;;;;;;;35.67;22.03;;;;;;;0.59;91.10;96076.50;5051893;28;20846;-46
2021/01/08 08:00:32;;;;;;;35.35;21.33;;;;;;;0.55;90.73;96088.84;5042233;28;20898;-46
2021/01/08 08:03:00;;;;;;;35.78;21.73;;;;;;;0.69;89.64;96081.03;5026117;28;20423;-44
2021/01/08 08:05:27;;;;;;;37.67;22.15;;;;;;;0.64;90.14;96090.03;5014872;28;20494;-46
2021/01/08 08:07:57;;;;;;;35.78;21.90;;;;;;;0.63;90.57;96093.56;5019214;28;20410;-49
2021/01/08 08:10:25;;;;;;;37.97;22.13;;;;;;;0.68;89.30;96092.31;5024203;28;20429;-49
2021/01/08 08:12:52;;;;;;;36.30;21.42;;;;;;;0.79;89.34;96102.09;5033454;28;20579;-46
2021/01/08 08:15:22;;;;;;;35.38;21.50;;;;;;;1.07;88.11;96096.03;5025970;28;20473;-46
2021/01/08 08:17:50;;;;;;;36.17;21.93;;;;;;;1.00;87.47;96107.72;5031351;28;20432;-44
2021/01/08 08:20:22;;;;;;;32.70;20.80;;;;;;;1.26;86.70;96110.44;5022814;28;20419;-48
2021/01/08 08:22:52;;;;;;;33.45;20.42;;;;;;;1.26;85.74;96105.25;5011781;28;20837;-49
2021/01/08 08:25:25;;;;;;;32.10;20.27;;;;;;;1.49;85.62;96102.03;5038281;28;20895;-44
2021/01/08 08:27:55;;;;;;;33.67;20.75;;;;;;;1.70;83.80;96107.59;5042352;28;20409;-47
2021/01/08 08:30:23;;;;;;;;;;;;;;;1.86;82.73;96104.88;5025660;28;20051;-47
2021/01/08 08:32:51;;;;;;;32.95;15.52;;;;;;;1.85;82.14;96108.38;5020199;28;20429;-50
2021/01/08 08:35:19;;;;;;;26.25;12.77;;;;;;;1.55;82.89;96103.38;5016317;28;20037;-49
2021/01/08 08:37:48;;;;;;;26.55;13.80;;;;;;;1.89;82.25;96109.84;5022767;28;20032;-46
2021/01/08 08:40:16;;;;;;;28.00;14.10;;;;;;;2.27;81.31;96106.47;5013509;28;20037;-44
2021/01/08 08:42:49;;;;;;;26.67;15.18;;;;;;;1.79;81.90;96108.75;5047169;28;20461;-43
2021/01/08 08:45:20;;;;;;;28.45;15.20;;;;;;;2.33;80.85;96103.47;5030770;28;20037;-45
2021/01/08 08:47:49;;;;;;;26.17;13.75;;;;;;;2.11;80.66;96096.28;5025272;28;20091;-50
2021/01/08 08:50:17;;;;;;;27.00;14.20;;;;;;;2.25;80.84;96103.16;5022251;28;20045;-45
2021/01/08 08:52:48;;;;;;;28.15;14.25;;;;;;;1.94;81.34;96102.59;5018199;28;20459;-45
2021/01/08 08:55:26;;;;;;;20.15;11.50;;;;;;;1.81;81.32;96104.31;5026298;28;20049;-47
2021/01/08 08:58:03;;;;;;;24.63;13.35;;;;;;;1.83;81.01;96103.28;5022975;28;20041;-49
2021/01/08 09:00:30;;;;;;;;;;;;;;;1.83;81.73;96108.50;5005048;28;20038;-46
2021/01/08 09:02:57;;;;;;;;;;;;;;;1.98;80.38;96104.03;5041732;28;20096;-50
2021/01/08 09:05:31;;;;;;;;;;;;;;;2.46;79.20;96096.50;5043008;28;19932;-46
2021/01/08 09:08:07;;;;;;;;;;;;;;;2.63;77.91;96092.75;5040999;28;19978;-48
2021/01/08 09:10:36;;;;;;;;;;;;;;;2.32;78.95;96094.84;5035359;28;20434;-47
2021/01/08 09:13:08;;;;;;;;;;;;;;;2.12;78.58;96101.34;5022868;28;19936;-43
2021/01/08 09:15:41;;;;;;;;;;;;;;;2.11;79.50;96107.50;5035236;28;19917;-46
2021/01/08 09:18:10;;;;;;;;;;;;;;;2.12;79.27;96105.72;5044700;28;19974;-48
2021/01/08 09:20:55;;;;;;;;;;;;;;;2.44;77.83;96092.31;5037817;28;19982;-49
2021/01/08 09:23:22;;;;;;;;;;;;;;;2.19;78.08;96103.56;5039184;28;20298;-48
2021/01/08 09:25:49;;;;;;;;;;;;;;;2.26;78.28;96102.22;5038274;28;19921;-46
2021/01/08 09:28:17;;;;;;;;;;;;;;;2.25;78.00;96105.75;5036238;28;19917;-50
2021/01/08 09:30:51;;;;;;;;;;;;;;;2.27;77.51;96103.88;5023805;28;19924;-47
2021/01/08 09:33:18;;;;;;;;;;;;;;;2.33;78.43;96106.91;5031965;28;19960;-45
2021/01/08 09:35:45;;;;;;;;;;;;;;;2.41;77.65;96103.81;5039990;28;19917;-45
2021/01/08 09:38:13;;;;;;;;;;;;;;;2.38;77.72;96104.00;5035309;28;20480;-47
2021/01/08 09:40:41;;;;;;;;;;;;;;;2.57;76.53;96104.41;5035023;28;20156;-49
2021/01/08 09:43:13;;;;;;;;;;;;;;;2.29;77.29;96107.22;5027836;28;19925;-53
2021/01/08 09:45:42;;;;;;;;;;;;;;;2.64;76.12;96104.00;5024120;28;20287;-46
2021/01/08 09:48:19;;;;;;;;;;;;;;;2.54;75.84;96104.59;5003256;28;19929;-50
2021/01/08 09:50:46;;;;;;;;;;;;;;;2.61;75.93;96111.09;5027501;28;20004;-50
2021/01/08 09:53:14;;;;;;;;;;;;;;;2.85;75.57;96105.13;5027152;28;20410;-47
2021/01/08 09:55:41;;;;;;;;;;;;;;;2.60;75.18;96108.56;5033732;28;20315;-47
2021/01/08 09:58:08;;;;;;;;;;;;;;;2.83;75.53;96104.41;5030857;28;20007;-49
2021/01/08 10:00:36;;;;;;;;;;;;;;;2.58;74.98;96110.44;5033823;28;19998;-49
2021/01/08 10:03:04;;;;;;;;;;;;;;;2.71;74.82;96111.28;5032335;28;19961;-51
2021/01/08 10:05:31;;;;;;;;;;;;;;;2.73;74.48;96100.78;5034498;28;19925;-50
2021/01/08 10:07:59;;;;;;;;;;;;;;;2.73;74.66;96106.81;5034576;28;19924;-49
2021/01/08 10:10:36;;;;;;;;;;;;;;;2.67;74.98;96109.00;5033310;28;19921;-49
2021/01/08 10:13:07;;;;;;;;;;;;;;;2.88;74.29;96107.50;5033334;28;19978;-45
2021/01/08 10:15:36;;;;;;;;;;;;;;;2.79;74.64;96110.78;5038202;28;20015;-45
2021/01/08 10:18:09;;;;;;;;;;;;;;;3.00;74.95;96105.84;5045541;28;19971;-49
2021/01/08 10:20:46;;;;;;;;;;;;;;;3.42;72.11;96101.16;5025015;28;19925;-44
2021/01/08 10:23:14;;;;;;;;;;;;;;;3.06;72.56;96098.44;5043453;28;19928;-46
2021/01/08 10:25:42;;;;;;;19.10;9.50;;;;;;;3.18;72.82;96108.94;5027879;28;20330;-50
2021/01/08 10:28:13;;;;;;;18.85;10.63;;;;;;;3.30;72.79;96106.28;5031486;28;20052;-46
2021/01/08 10:30:40;;;;;;;18.73;10.63;;;;;;;3.58;71.28;96101.72;5032511;28;20099;-46
2021/01/08 10:33:07;;;;;;;20.08;11.18;;;;;;;3.40;71.53;96111.66;5038596;28;20048;-47
2021/01/08 10:35:36;;;;;;;18.85;11.00;;;;;;;3.56;70.78;96096.59;5032111;28;20042;-49
2021/01/08 10:38:04;;;;;;;19.45;10.13;;;;;;;3.75;70.82;96103.94;5036010;28;20138;-50
2021/01/08 10:40:31;;;;;;;16.20;9.82;;;;;;;3.17;71.80;96099.47;5029066;28;20057;-47
2021/01/08 10:42:59;;;;;;;12.63;7.72;;;;;;;3.32;71.80;96095.75;5036507;28;20124;-47
2021/01/08 10:45:26;;;;;;;16.45;10.30;;;;;;;3.09;71.59;96097.38;5031403;28;20388;-51
2021/01/08 10:47:53;;;;;;;19.58;12.27;;;;;;;3.31;71.53;96099.31;5036370;28;20417;-49
2021/01/08 10:50:21;;;;;;;;;;;;;;;2.90;73.00;96092.63;5033364;28;20083;-44
2021/01/08 10:52:47;;;;;;;;;;;;;;;3.62;70.92;96086.69;5029922;28;19996;-47
2021/01/08 10:55:24;;;;;;;;;;;;;;;3.29;72.05;96091.59;5032178;28;19921;-49
2021/01/08 10:57:51;;;;;;;;;;;;;;;3.91;68.89;96077.53;5032912;28;20374;-44
2021/01/08 11:00:21;;;;;;;;;;;;;;;3.52;70.27;96078.69;5032764;28;19935;-46
2021/01/08 11:02:50;;;;;;;;;;;;;;;3.15;70.57;96077.88;5043308;28;20351;-54
2021/01/08 11:05:17;;;;;;;;;;;;;;;3.26;70.60;96080.56;5032172;28;19920;-49
2021/01/08 11:07:44;;;;;;;16.95;9.55;;;;;;;3.43;70.67;96082.78;5040991;28;19921;-47
2021/01/08 11:10:12;;;;;;;19.33;10.15;;;;;;;3.39;71.29;96077.91;5045781;28;20076;-47
2021/01/08 11:12:39;;;;;;;14.80;8.15;;;;;;;3.68;70.12;96075.78;5040403;28;20056;-50
2021/01/08 11:15:07;;;;;;;16.63;9.07;;;;;;;3.59;69.90;96074.69;5022250;28;20145;-48
2021/01/08 11:17:36;;;;;;;15.63;8.30;;;;;;;3.32;70.97;96067.91;5032367;28;20076;-49
2021/01/08 11:20:04;;;;;;;18.85;8.90;;;;;;;3.23;71.00;96070.34;5045402;28;20068;-48
2021/01/08 11:22:31;;;;;;;16.52;8.48;;;;;;;3.21;70.33;96067.03;5038841;28;20099;-46
2021/01/08 11:24:58;;;;;;;16.58;8.98;;;;;;;3.41;70.91;96073.44;5039358;28;20420;-48
2021/01/08 11:27:25;;;;;;;14.27;8.32;;;;;;;3.06;71.88;96077.59;5034522;28;20041;-49
2021/01/08 11:29:52;;;;;;;17.35;9.48;;;;;;;3.28;71.30;96068.25;5047594;28;20419;-50
2021/01/08 11:32:19;;;;;;;17.95;10.82;;;;;;;3.64;70.07;96069.13;5040680;28;20574;-46
2021/01/08 11:34:47;;;;;;;;;;;;;;;3.20;70.55;96067.94;5048406;28;20459;-46
2021/01/08 11:37:13;;;;;;;;;;;;;;;2.99;71.06;96065.09;5039466;28;20338;-52
2021/01/08 11:39:44;;;;;;;;;;;;;;;3.33;70.62;96066.13;5038198;28;19920;-46
2021/01/08 11:42:10;;;;;;;;;;;;;;;3.38;69.94;96061.44;5033351;28;19997;-46
2021/01/08 11:44:37;;;;;;;;;;;;;;;3.14;69.10;96065.81;5039633;28;19925;-46